Nutley, NJ (07110)

11:04 AM EST on January 30, 2015 (GMT -0500)
Hillside Ave | Change Station
CLOSE
Current Station
Personal Weather Station
Location: Nutley, NJ
Elevation: 150 ft
Nearby Weather Stations
Active Advisory: Wind Advisory

Elev 150 ft 40.82 °N, 74.16 °W | Updated 2 seconds ago

Snow
Snow
38.1 °F
Feels Like 38 °F
N
2.2
Wind Variable Wind from North
Gusts 3.6 mph

Today
High -- | Low -- °F
--% Chance of Precip.
Yesterday
High -- | Low -- °F
Precip. -- in
7:08 AM 5:11 PM
Waxing Gibbous, 83% visible
Pressure 29.86 in
Visibility 9.0 miles
Clouds Overcast 7000 ft
Windchill 38 °F
Dew Point 2 °F
Humidity 21%
Rainfall 0.00 in
Snow Depth Not available.
UV 1 out of 12
Pollen .10 out of 12
Air Quality Not available.
Flu Activity Not available.
METAR KTEB 301551Z 31009KT 9SM -SN OVC070 01/M03 A2986 RMK AO2 SLP111 P0000 T00111033

More Conditions Fewer Conditions

Pressure 29.86 in
Visibility 9.0 miles
Clouds Overcast 7000 ft
Windchill 38 °F
Dew Point 2 °F
Humidity 21%
Rainfall 0.00 in
Snow Depth Not available.
UV 1 out of 12
Pollen .10 out of 12
Air Quality Not available.
Flu Activity Not available.
METAR KTEB 301551Z 31009KT 9SM -SN OVC070 01/M03 A2986 RMK AO2 SLP111 P0000 T00111033

More Conditions Fewer Conditions

10-Day Weather Forecast

Almanac

Astronomy

Jan. 30, 2015 Rise Set
Actual Time
Civil Twilight
Nautical Twilight
Astronomical Twilight
Moon
Length of Visible Light
Length of Day
Tomorrow will be .
, % of the Moon is Illuminated

Today's Extremes

State Highs State Lows

Community

WunderPhotos

Upload Photos

1,791,800 photos uploaded!

WunderBlogs® & News

Nearby

Air Quality

  Air Quality AQ Index Pollutant
Not available.

Snow Depth

Station Depth Elevation

Earthquake Activity

City Distance Mag. Time & Date
Minimum magnitude displayed is 2.5.

Coastal Water Temperatures

Place Temperature

Nearby Weather Stations